Time;durP1;ratioP1;P1;durP2;ratioP2;P2;SDS_P1;SDS_P2;PMS_P1;PMS_P2;Temp;Humidity;BMP_temperature;BMP_pressure;BME280_temperature;BME280_humidity;BME280_pressure;Samples;Min_cycle;Max_cycle;Signal;HPM_P1;HPM_P2
2022/08/21 02:02:55;;;;;;;5.20;4.60;;;;;;;20.96;63.26;99643.96;105726;1268;138998;-76
2022/08/21 02:05:28;;;;;;;9.10;5.10;;;;;;;20.94;63.22;99641.41;105691;1279;97848;-76
2022/08/21 02:08:00;;;;;;;5.80;5.00;;;;;;;20.95;63.24;99645.58;105759;1279;111555;-76
2022/08/21 02:10:34;;;;;;;6.30;4.90;;;;;;;20.95;63.35;99647.70;105634;1279;138667;-75
2022/08/21 02:13:07;;;;;;;7.00;4.90;;;;;;;20.95;63.38;99649.02;105684;1279;108922;-76
2022/08/21 02:15:44;;;;;;;7.40;4.70;;;;;;;20.93;63.43;99647.55;105595;1279;138823;-75
2022/08/21 02:18:17;;;;;;;8.00;4.60;;;;;;;20.92;63.51;99644.14;105705;1279;97916;-75
2022/08/21 02:20:51;;;;;;;5.50;4.70;;;;;;;20.91;63.56;99637.49;105619;1281;138722;-75
2022/08/21 02:23:27;;;;;;;9.80;5.00;;;;;;;20.89;63.39;99635.39;105614;1281;108877;-75
2022/08/21 02:26:00;;;;;;;7.90;4.90;;;;;;;20.87;63.66;99634.48;105683;1279;108849;-75
2022/08/21 02:28:32;;;;;;;8.80;4.90;;;;;;;20.84;63.74;99629.43;106896;1279;140449;-76
2022/08/21 02:31:05;;;;;;;7.60;4.80;;;;;;;20.81;63.70;99631.42;107297;1279;96308;-76
2022/08/21 02:33:38;;;;;;;8.80;4.80;;;;;;;20.78;63.93;99624.06;107165;1279;139497;-76
2022/08/21 02:36:13;;;;;;;9.70;5.40;;;;;;;20.76;63.89;99624.80;106483;1279;108960;-75
2022/08/21 02:38:45;;;;;;;8.70;4.90;;;;;;;20.74;63.84;99628.98;105620;1279;138992;-75
2022/08/21 02:41:21;;;;;;;9.10;4.90;;;;;;;20.71;63.98;99631.73;105686;1279;97868;-76
2022/08/21 02:43:53;;;;;;;7.40;5.00;;;;;;;20.68;64.15;99629.70;105758;1279;97963;-74
2022/08/21 02:46:25;;;;;;;7.30;4.80;;;;;;;20.65;64.30;99627.19;105558;1281;138795;-75
2022/08/21 02:48:57;;;;;;;5.90;4.60;;;;;;;20.62;64.41;99622.10;105713;1279;108951;-77
2022/08/21 02:51:30;;;;;;;5.30;4.60;;;;;;;20.60;64.43;99619.59;105534;1281;138647;-75
2022/08/21 02:54:03;;;;;;;7.50;4.60;;;;;;;20.58;64.43;99620.16;105603;1280;97944;-74
2022/08/21 02:56:36;;;;;;;6.00;4.70;;;;;;;20.56;64.66;99616.61;105508;1281;138698;-74
2022/08/21 02:59:08;;;;;;;7.10;4.90;;;;;;;20.54;64.69;99608.65;105626;1279;112051;-75
2022/08/21 03:01:40;;;;;;;6.30;5.00;;;;;;;20.51;64.86;99607.77;105453;1281;108972;-74
2022/08/21 03:04:12;;;;;;;6.00;5.10;;;;;;;20.50;64.94;99611.11;105297;1279;138587;-77
2022/08/21 03:06:45;;;;;;;6.30;4.90;;;;;;;20.45;64.90;99605.25;105528;1280;97800;-76
2022/08/21 03:09:17;;;;;;;9.00;4.90;;;;;;;20.43;65.16;99606.33;105442;1281;138886;-76
2022/08/21 03:11:49;;;;;;;13.70;5.20;;;;;;;20.41;65.08;99602.11;105520;1281;112489;-76
2022/08/21 03:14:21;;;;;;;10.10;5.20;;;;;;;20.39;65.16;99601.58;105639;1279;109464;-75
2022/08/21 03:16:53;;;;;;;7.70;5.30;;;;;;;20.37;65.24;99600.48;105526;1281;108862;-76
2022/08/21 03:19:26;;;;;;;6.40;5.20;;;;;;;20.34;65.41;99600.23;105569;1281;97856;-75
2022/08/21 03:21:58;;;;;;;6.20;4.80;;;;;;;20.31;65.44;99600.09;105467;1280;138445;-75
2022/08/21 03:24:30;;;;;;;7.40;5.00;;;;;;;20.28;65.54;99598.73;105678;1279;112633;-76
2022/08/21 03:27:03;;;;;;;5.70;5.10;;;;;;;20.26;65.63;99603.02;105460;1281;139169;-76
2022/08/21 03:29:40;;;;;;;10.80;5.30;;;;;;;20.23;65.76;99602.86;105651;1279;109293;-75
2022/08/21 03:32:13;;;;;;;10.20;4.60;;;;;;;20.22;65.85;99607.69;105678;1279;97890;-75
2022/08/21 03:34:45;;;;;;;8.00;5.00;;;;;;;20.22;65.98;99606.45;105394;1281;139176;-75
2022/08/21 03:37:17;;;;;;;7.80;4.90;;;;;;;20.22;65.93;99610.21;105620;1281;112492;-76
2022/08/21 03:39:49;;;;;;;7.20;5.30;;;;;;;20.20;66.08;99602.20;105436;1281;140287;-75
2022/08/21 03:42:22;;;;;;;8.80;5.30;;;;;;;20.21;66.07;99600.92;105540;1281;108783;-76
2022/08/21 03:44:54;;;;;;;8.30;6.30;;;;;;;20.20;66.14;99601.37;105497;1281;139029;-76
2022/08/21 03:47:26;;;;;;;6.80;4.70;;;;;;;20.21;66.35;99603.94;105615;1281;97756;-76
2022/08/21 03:49:59;;;;;;;7.90;5.10;;;;;;;20.22;66.19;99602.02;105688;1280;111458;-77
2022/08/21 03:52:31;;;;;;;13.80;5.20;;;;;;;20.25;66.36;99605.20;105579;1281;138674;-75
2022/08/21 03:55:03;;;;;;;7.60;5.10;;;;;;;20.26;66.41;99605.83;105490;1281;107645;-77
2022/08/21 03:57:35;;;;;;;7.30;4.80;;;;;;;20.25;66.34;99608.17;105451;1281;138641;-76
2022/08/21 04:00:11;;;;;;;8.00;4.70;;;;;;;20.28;66.37;99612.05;105507;1281;98526;-76
2022/08/21 04:02:44;;;;;;;8.30;5.50;;;;;;;20.30;66.28;99612.76;106933;1280;138596;-76
2022/08/21 04:05:26;;;;;;;8.80;4.90;;;;;;;20.33;66.38;99610.35;107008;1281;108346;-76
2022/08/21 04:08:01;;;;;;;9.20;4.70;;;;;;;20.38;66.34;99614.04;107030;1280;107860;-75
2022/08/21 04:10:37;;;;;;;7.40;5.20;;;;;;;20.39;66.26;99613.91;106863;1280;140286;-76
2022/08/21 04:13:10;;;;;;;7.60;5.40;;;;;;;20.44;66.35;99616.13;107113;1279;96370;-75
2022/08/21 04:15:43;;;;;;;8.00;5.30;;;;;;;20.47;66.24;99618.38;107028;1279;139239;-76
2022/08/21 04:18:15;;;;;;;8.20;5.30;;;;;;;20.50;66.12;99622.21;107035;1280;107953;-76
2022/08/21 04:20:50;;;;;;;8.30;5.30;;;;;;;20.54;65.95;99619.98;107023;1279;139162;-75
2022/08/21 04:23:24;;;;;;;8.70;5.20;;;;;;;20.59;65.92;99613.50;107033;1281;95797;-75
2022/08/21 04:25:57;;;;;;;6.10;5.50;;;;;;;20.67;65.92;99613.88;107008;1281;95777;-75
2022/08/21 04:28:30;;;;;;;6.80;5.20;;;;;;;20.73;65.64;99611.79;107020;1280;139585;-75
2022/08/21 04:31:02;;;;;;;8.10;5.00;;;;;;;20.82;65.53;99609.65;107016;1281;107515;-75
2022/08/21 04:33:34;;;;;;;8.90;6.10;;;;;;;20.91;65.61;99605.83;106848;1281;138760;-76
2022/08/21 04:36:07;;;;;;;11.10;5.30;;;;;;;21.01;65.23;99605.02;107154;1279;96205;-76
2022/08/21 04:38:39;;;;;;;6.90;4.70;;;;;;;21.08;64.97;99607.38;107052;1280;138669;-75
2022/08/21 04:41:15;;;;;;;5.40;4.70;;;;;;;21.27;64.75;99606.48;107015;1281;111558;-76
2022/08/21 04:43:56;;;;;;;9.80;4.90;;;;;;;21.59;64.30;99601.22;107030;1279;108912;-76
2022/08/21 04:46:28;;;;;;;9.40;5.20;;;;;;;22.02;63.70;99600.24;106904;1281;139020;-76
2022/08/21 04:49:01;;;;;;;6.10;4.30;;;;;;;22.37;62.95;99596.89;107027;1281;96436;-76
2022/08/21 04:51:38;;;;;;;7.40;4.60;;;;;;;22.74;62.35;99594.36;107003;1279;138501;-76
2022/08/21 04:54:14;;;;;;;8.10;4.70;;;;;;;23.21;61.33;99594.38;107179;1279;112577;-77
2022/08/21 04:56:50;;;;;;;7.50;4.70;;;;;;;23.59;60.37;99594.91;107014;1279;139013;-75
2022/08/21 04:59:25;;;;;;;6.70;4.40;;;;;;;24.06;59.44;99596.80;107172;1279;108991;-75
2022/08/21 05:01:57;;;;;;;5.20;4.20;;;;;;;24.44;58.57;99596.52;107007;1280;96239;-74
2022/08/21 05:04:32;;;;;;;6.50;4.40;;;;;;;24.94;57.77;99594.50;106873;1280;138409;-76
2022/08/21 05:07:08;;;;;;;7.00;4.50;;;;;;;25.36;56.52;99600.70;106971;1280;113037;-75
2022/08/21 05:09:41;;;;;;;7.20;4.50;;;;;;;25.76;56.19;99599.45;106946;1281;139292;-75
2022/08/21 05:12:14;;;;;;;10.20;5.40;;;;;;;26.15;55.38;99604.73;107028;1281;107769;-75
2022/08/21 05:14:46;;;;;;;7.60;4.40;;;;;;;26.54;54.12;99601.95;106833;1281;139123;-75
2022/08/21 05:17:19;;;;;;;8.70;4.50;;;;;;;26.84;53.36;99598.89;107006;1281;96148;-75
2022/08/21 05:19:52;;;;;;;7.00;4.30;;;;;;;26.88;52.51;99597.30;107199;1279;110895;-75
2022/08/21 05:22:25;;;;;;;5.20;4.30;;;;;;;26.63;52.43;99599.61;106934;1281;139277;-75
2022/08/21 05:24:59;;;;;;;8.00;4.50;;;;;;;26.34;52.50;99605.23;106830;1281;109302;-75
2022/08/21 05:27:31;;;;;;;7.70;4.10;;;;;;;26.13;52.69;99608.40;107014;1279;137882;-75
2022/08/21 05:30:07;;;;;;;5.20;4.60;;;;;;;26.03;52.78;99602.38;107059;1281;96153;-75
2022/08/21 05:32:39;;;;;;;6.90;4.90;;;;;;;26.04;52.86;99606.15;106946;1281;137956;-75
2022/08/21 05:35:11;;;;;;;11.50;4.70;;;;;;;26.33;52.74;99603.56;107030;1281;108945;-75
2022/08/21 05:37:44;;;;;;;5.20;4.60;;;;;;;26.60;52.36;99594.96;107046;1279;108984;-75
2022/08/21 05:40:16;;;;;;;6.30;4.70;;;;;;;26.76;51.90;99591.54;106931;1281;138011;-75
2022/08/21 05:42:56;;;;;;;7.40;4.20;;;;;;;27.07;51.19;99590.75;107175;1279;95904;-75
2022/08/21 05:45:31;;;;;;;6.40;4.40;;;;;;;27.53;50.69;99592.90;106884;1280;138473;-74
2022/08/21 05:48:18;;;;;;;6.80;4.50;;;;;;;27.92;50.10;99595.08;106975;1280;109089;-75
2022/08/21 05:50:52;;;;;;;5.20;4.20;;;;;;;27.92;49.31;99595.92;106949;1280;138750;-74
2022/08/21 05:53:25;;;;;;;5.20;4.10;;;;;;;27.76;49.74;99600.46;107043;1281;95848;-75
2022/08/21 05:55:57;;;;;;;8.30;4.60;;;;;;;27.89;49.49;99599.36;107093;1279;96194;-75
2022/08/21 05:58:31;;;;;;;5.90;4.50;;;;;;;28.21;49.20;99601.31;107067;1279;138054;-76
2022/08/21 06:01:04;;;;;;;6.40;4.60;;;;;;;28.54;48.76;99607.11;106847;1280;109347;-76
2022/08/21 06:03:40;;;;;;;6.90;4.50;;;;;;;28.69;48.65;99600.38;106911;1281;137880;-76
2022/08/21 06:06:12;;;;;;;6.90;4.50;;;;;;;28.88;48.29;99600.15;107072;1279;96169;-76
2022/08/21 06:08:45;;;;;;;6.40;5.20;;;;;;;29.11;47.80;99596.80;106934;1281;137797;-76
2022/08/21 06:11:17;;;;;;;8.80;5.90;;;;;;;29.36;47.29;99599.34;107075;1280;112897;-76
2022/08/21 06:13:51;;;;;;;6.80;5.20;;;;;;;29.53;46.74;99603.04;107194;1279;109022;-76
2022/08/21 06:16:24;;;;;;;4.90;4.30;;;;;;;29.78;46.41;99605.74;107030;1279;138018;-76
2022/08/21 06:18:56;;;;;;;5.70;4.40;;;;;;;30.10;45.87;99605.51;107009;1281;96087;-76
2022/08/21 06:21:33;;;;;;;7.30;4.50;;;;;;;30.18;45.22;99610.29;106908;1280;137971;-76
2022/08/21 06:24:08;;;;;;;10.50;4.30;;;;;;;30.12;44.62;99614.42;106815;1281;113801;-76
2022/08/21 06:26:40;;;;;;;7.30;5.30;;;;;;;30.25;44.72;99613.70;107101;1279;138189;-76
2022/08/21 06:29:16;;;;;;;9.80;4.20;;;;;;;30.73;43.79;99611.52;107043;1281;108955;-76
2022/08/21 06:31:49;;;;;;;5.30;4.00;;;;;;;31.38;43.26;99606.98;107028;1281;97275;-76
2022/08/21 06:34:21;;;;;;;8.80;4.70;;;;;;;32.13;42.59;99606.22;107100;1279;138368;-76
2022/08/21 06:36:53;;;;;;;7.60;4.30;;;;;;;33.00;41.51;99605.80;106935;1279;111643;-76
2022/08/21 06:39:28;;;;;;;9.50;3.90;;;;;;;33.77;40.67;99606.38;106963;1280;139114;-76
2022/08/21 06:42:03;;;;;;;7.30;4.10;;;;;;;34.35;39.14;99610.29;107030;1281;108954;-76
2022/08/21 06:44:41;;;;;;;5.30;3.80;;;;;;;34.72;38.64;99612.60;106731;1281;140303;-76
2022/08/21 06:47:14;;;;;;;5.70;4.20;;;;;;;35.10;37.95;99610.85;107198;1279;96301;-76
2022/08/21 06:49:46;;;;;;;4.10;3.70;;;;;;;35.46;37.13;99610.00;107080;1279;112421;-77
2022/08/21 06:52:20;;;;;;;4.50;3.80;;;;;;;35.88;36.34;99612.38;106954;1280;137992;-77
2022/08/21 06:54:52;;;;;;;6.20;3.90;;;;;;;36.13;35.51;99616.25;107130;1279;108829;-77
2022/08/21 06:57:25;;;;;;;4.80;4.10;;;;;;;36.33;34.93;99612.55;106952;1280;139293;-77
2022/08/21 06:59:57;;;;;;;6.90;3.70;;;;;;;36.55;34.92;99612.97;107138;1279;96348;-76
2022/08/21 07:02:30;;;;;;;7.90;3.90;;;;;;;36.86;34.57;99613.26;106931;1273;137870;-76
2022/08/21 07:05:02;;;;;;;9.30;4.30;;;;;;;37.18;34.03;99609.98;106951;1280;108928;-76
2022/08/21 07:07:49;;;;;;;4.90;3.70;;;;;;;37.46;33.47;99613.59;106935;1280;108860;-76
2022/08/21 07:10:21;;;;;;;6.10;4.00;;;;;;;37.66;32.85;99615.20;106943;1281;139671;-76
2022/08/21 07:12:54;;;;;;;4.60;3.80;;;;;;;37.73;32.25;99615.91;106978;1281;96638;-76
2022/08/21 07:15:32;;;;;;;9.30;4.10;;;;;;;37.90;31.95;99611.84;106769;1281;138480;-76
2022/08/21 07:18:05;;;;;;;7.50;4.00;;;;;;;38.19;31.60;99612.53;106975;1281;108807;-76
2022/08/21 07:20:37;;;;;;;7.70;3.80;;;;;;;38.54;31.49;99618.38;106916;1281;138422;-76
2022/08/21 07:23:12;;;;;;;8.10;3.50;;;;;;;38.78;30.91;99611.11;106895;1281;96193;-76
2022/08/21 07:25:44;;;;;;;4.30;3.10;;;;;;;39.06;30.72;99607.82;106969;1281;96257;-76
2022/08/21 07:28:17;;;;;;;6.40;3.40;;;;;;;39.40;30.51;99606.73;106847;1281;138542;-76
2022/08/21 07:30:54;;;;;;;4.50;3.30;;;;;;;39.85;30.03;99603.25;106979;1281;108677;-76
2022/08/21 07:33:27;;;;;;;6.70;3.60;;;;;;;40.31;29.29;99601.08;107022;1281;137886;-76
2022/08/21 07:36:01;;;;;;;7.40;3.70;;;;;;;40.60;28.78;99598.56;107092;1281;96219;-76
2022/08/21 07:38:34;;;;;;;4.40;3.40;;;;;;;40.77;28.88;99598.23;106930;1281;137957;-75
2022/08/21 07:41:14;;;;;;;4.00;3.10;;;;;;;40.85;29.03;99598.04;107039;1281;112705;-76
2022/08/21 07:43:47;;;;;;;4.30;3.50;;;;;;;40.79;28.73;99598.52;106919;1281;109144;-76
2022/08/21 07:46:19;;;;;;;5.40;3.30;;;;;;;40.79;28.06;99596.73;106791;1281;138014;-77
2022/08/21 07:48:51;;;;;;;6.70;3.80;;;;;;;40.83;27.68;99592.30;106900;1281;96245;-77
2022/08/21 07:51:29;;;;;;;6.50;3.80;;;;;;;40.78;27.79;99590.70;106925;1281;137759;-76
2022/08/21 07:54:02;;;;;;;5.90;3.40;;;;;;;40.76;28.02;99582.00;106946;1280;112439;-76
2022/08/21 07:56:35;;;;;;;8.50;3.50;;;;;;;40.80;27.84;99581.97;106823;1280;137967;-76
2022/08/21 07:59:08;;;;;;;8.60;3.50;;;;;;;40.82;27.45;99576.53;106997;1280;109030;-76
2022/08/21 08:01:40;;;;;;;6.30;3.20;;;;;;;40.86;27.27;99576.28;106992;1281;96149;-76
2022/08/21 08:04:12;;;;;;;4.50;3.40;;;;;;;41.03;28.04;99577.20;106785;1281;138144;-76
2022/08/21 08:06:45;;;;;;;4.80;3.00;;;;;;;41.27;27.53;99574.52;106921;1281;111398;-76
2022/08/21 08:09:18;;;;;;;8.00;3.20;;;;;;;41.59;27.52;99575.21;106783;1281;138794;-76
2022/08/21 08:11:50;;;;;;;5.20;3.10;;;;;;;41.79;26.70;99569.90;106729;1281;109170;-76
2022/08/21 08:14:22;;;;;;;4.80;3.50;;;;;;;41.95;26.57;99569.71;106847;1281;95869;-76
2022/08/21 08:17:02;;;;;;;4.10;2.90;;;;;;;42.16;26.35;99571.25;106871;1281;96206;-76
2022/08/21 08:19:34;;;;;;;5.50;3.30;;;;;;;42.35;26.17;99572.73;106951;1281;113152;-76
2022/08/21 08:22:15;;;;;;;5.80;3.30;;;;;;;42.48;26.47;99571.54;106834;1281;138370;-76
2022/08/21 08:24:48;;;;;;;3.70;3.20;;;;;;;42.44;25.17;99571.36;106816;1281;109579;-78
2022/08/21 08:27:21;;;;;;;6.10;3.20;;;;;;;42.16;25.44;99563.96;106598;1282;138001;-77
2022/08/21 08:29:53;;;;;;;5.80;3.30;;;;;;;42.15;25.16;99570.36;106735;1283;96404;-77
2022/08/21 08:32:25;;;;;;;6.90;3.10;;;;;;;42.08;25.12;99573.70;106623;1283;137711;-76
2022/08/21 08:34:58;;;;;;;5.60;3.20;;;;;;;41.86;24.69;99571.84;106738;1282;107859;-77
2022/08/21 08:37:30;;;;;;;9.20;3.20;;;;;;;41.59;24.86;99575.30;106819;1281;109032;-77
2022/08/21 08:40:07;;;;;;;5.30;2.90;;;;;;;41.39;24.90;99572.54;106385;1282;138057;-76
2022/08/21 08:42:40;;;;;;;3.10;2.60;;;;;;;41.15;25.70;99568.27;106760;1282;97111;-77
2022/08/21 08:45:14;;;;;;;4.50;3.00;;;;;;;41.19;25.51;99565.42;106654;1282;138302;-77
2022/08/21 08:47:50;;;;;;;6.00;3.10;;;;;;;41.19;25.00;99564.70;106944;1281;108899;-77
2022/08/21 08:50:28;;;;;;;6.60;3.50;;;;;;;41.14;26.13;99564.14;106855;1281;109074;-77
2022/08/21 08:53:05;;;;;;;4.40;3.80;;;;;;;41.35;26.55;99561.40;106674;1281;96130;-77
2022/08/21 08:55:39;;;;;;;6.40;3.20;;;;;;;41.67;25.67;99556.41;106755;1282;96158;-78
2022/08/21 08:58:12;;;;;;;7.30;3.30;;;;;;;41.55;25.23;99556.95;106628;1281;139083;-78
2022/08/21 09:00:47;;;;;;;3.00;2.80;;;;;;;41.23;24.80;99562.02;106913;1281;109282;-78
2022/08/21 09:03:21;;;;;;;5.00;3.20;;;;;;;40.84;25.02;99568.07;106791;1281;137873;-77
2022/08/21 09:06:01;;;;;;;4.70;3.30;;;;;;;40.54;25.43;99563.52;106915;1281;96230;-78
2022/08/21 09:08:49;;;;;;;5.70;3.40;;;;;;;40.38;25.44;99565.34;106633;1282;138400;-78
2022/08/21 09:11:33;;;;;;;5.40;3.20;;;;;;;40.15;25.81;99568.96;106915;1281;111608;-77
2022/08/21 09:14:15;;;;;;;3.90;3.30;;;;;;;40.24;26.09;99568.06;106911;1281;108954;-77
2022/08/21 09:16:54;;;;;;;5.50;3.20;;;;;;;40.19;25.92;99563.91;106502;1283;139128;-77
2022/08/21 09:19:51;;;;;;;7.40;3.00;;;;;;;40.15;26.33;99561.03;106924;1280;96102;-76
2022/08/21 09:22:31;;;;;;;7.70;3.40;;;;;;;39.89;27.03;99561.92;106788;1281;137707;-76
2022/08/21 09:25:13;;;;;;;6.90;3.10;;;;;;;39.89;26.88;99561.59;106896;1281;112711;-77
2022/08/21 09:27:45;;;;;;;7.10;3.00;;;;;;;39.96;26.42;99562.65;106632;1282;137830;-77
2022/08/21 09:30:18;;;;;;;5.30;3.10;;;;;;;40.03;26.83;99559.45;106690;1282;107484;-77
2022/08/21 09:32:50;;;;;;;4.40;3.20;;;;;;;40.09;26.23;99557.27;106798;1281;138914;-77
2022/08/21 09:35:24;;;;;;;9.10;3.20;;;;;;;39.66;25.75;99559.88;106919;1282;97183;-78
2022/08/21 09:38:00;;;;;;;5.00;3.30;;;;;;;38.57;26.03;99558.91;106922;1281;111563;-77
2022/08/21 09:40:38;;;;;;;4.20;3.30;;;;;;;37.43;27.16;99555.44;106771;1282;138261;-77
2022/08/21 09:43:25;;;;;;;7.00;4.50;;;;;;;36.57;28.29;99558.95;106891;1281;107461;-77
2022/08/21 09:46:11;;;;;;;8.60;4.30;;;;;;;36.11;28.93;99557.94;106660;1282;138534;-77
2022/08/21 09:48:49;;;;;;;6.80;2.90;;;;;;;36.07;29.30;99557.33;106928;1280;96039;-77
2022/08/21 09:51:25;;;;;;;6.80;3.10;;;;;;;36.11;29.42;99549.38;106776;1281;137860;-77
2022/08/21 09:54:11;;;;;;;4.70;3.30;;;;;;;35.92;29.73;99554.42;106665;1282;109046;-77
2022/08/21 09:59:48;;;;;;;5.20;3.20;;;;;;;36.19;30.04;99550.21;106728;1280;96282;-77
2022/08/21 10:02:29;;;;;;;6.80;3.80;;;;;;;36.38;30.02;99548.06;106949;1281;96155;-77
2022/08/21 10:05:10;;;;;;;6.40;3.20;;;;;;;36.18;30.48;99543.59;106744;1282;112621;-77
2022/08/21 10:07:42;;;;;;;6.90;3.00;;;;;;;35.83;30.55;99543.67;106816;1281;108935;-76
2022/08/21 10:10:20;;;;;;;6.40;2.80;;;;;;;35.54;30.77;99541.73;106878;1281;137966;-77
2022/08/21 10:13:12;;;;;;;7.00;3.70;;;;;;;35.16;31.06;99545.04;106909;1281;96167;-76
2022/08/21 10:15:54;;;;;;;3.80;3.10;;;;;;;34.57;31.78;99547.35;106818;1280;138631;-76
2022/08/21 10:18:31;;;;;;;6.10;3.40;;;;;;;34.13;32.15;99545.79;106795;1281;112547;-76
2022/08/21 10:21:09;;;;;;;7.60;3.90;;;;;;;33.76;32.81;99548.09;106702;1281;139416;-76
2022/08/21 10:24:02;;;;;;;4.70;3.30;;;;;;;33.43;33.30;99552.86;106959;1281;109386;-76
2022/08/21 10:26:45;;;;;;;6.50;3.50;;;;;;;33.13;33.90;99548.15;106773;1281;138002;-76
2022/08/21 10:29:40;;;;;;;10.50;3.90;;;;;;;32.84;34.45;99550.90;106915;1280;96384;-77
2022/08/21 10:32:27;;;;;;;5.90;4.00;;;;;;;32.66;34.61;99550.20;106919;1281;113250;-77
2022/08/21 10:35:07;;;;;;;9.70;3.70;;;;;;;32.41;34.73;99544.84;106884;1281;109189;-77
2022/08/21 10:37:53;;;;;;;6.30;3.90;;;;;;;32.21;35.55;99546.88;106914;1281;109080;-77
2022/08/21 10:40:31;;;;;;;4.40;3.30;;;;;;;32.30;35.51;99543.79;106620;1281;137957;-77
2022/08/21 10:43:17;;;;;;;6.00;3.30;;;;;;;32.21;34.98;99544.89;106894;1281;96203;-77
2022/08/21 10:45:58;;;;;;;4.60;2.90;;;;;;;32.37;35.76;99548.70;106746;1281;138058;-77
2022/08/21 10:48:37;;;;;;;4.10;3.10;;;;;;;32.63;35.40;99545.91;106904;1281;108994;-76
2022/08/21 10:51:17;;;;;;;6.00;3.00;;;;;;;32.58;35.06;99546.77;106799;1279;137897;-77
2022/08/21 10:54:06;;;;;;;6.60;3.60;;;;;;;32.37;35.06;99549.79;106791;1281;97085;-77
2022/08/21 10:56:41;;;;;;;3.90;2.90;;;;;;;32.19;35.37;99547.73;106588;1283;138575;-76
2022/08/21 10:59:29;;;;;;;6.80;3.40;;;;;;;32.14;35.61;99544.93;106953;1279;112082;-76
2022/08/21 11:02:22;;;;;;;7.40;3.10;;;;;;;32.23;35.83;99544.10;106972;1281;109143;-76
2022/08/21 11:04:58;;;;;;;5.50;2.90;;;;;;;32.13;35.96;99539.94;106880;1281;108961;-76
2022/08/21 11:07:36;;;;;;;4.10;3.00;;;;;;;31.99;36.07;99545.19;106981;1281;96315;-76
2022/08/21 11:10:15;;;;;;;10.00;3.30;;;;;;;31.76;35.94;99540.02;106821;1281;137852;-76
2022/08/21 11:12:52;;;;;;;4.40;3.30;;;;;;;31.50;36.03;99534.73;106886;1281;112463;-76
2022/08/21 11:15:36;;;;;;;5.80;3.00;;;;;;;31.40;36.86;99537.58;106705;1281;139344;-76
2022/08/21 11:18:22;;;;;;;5.10;3.20;;;;;;;31.63;37.33;99533.25;106788;1281;109002;-76
2022/08/21 11:21:03;;;;;;;4.20;3.10;;;;;;;31.95;37.03;99536.35;106829;1281;138007;-76
2022/08/21 11:23:44;;;;;;;8.00;3.30;;;;;;;32.03;36.61;99533.16;106899;1280;96153;-77
2022/08/21 11:26:24;;;;;;;3.50;3.20;;;;;;;32.00;35.97;99531.80;105563;1282;1550899;-76
2022/08/21 11:29:05;;;;;;;3.40;3.00;;;;;;;31.86;35.61;99532.52;106984;1281;107847;-77
2022/08/21 11:31:49;;;;;;;6.70;2.90;;;;;;;31.74;36.19;99528.86;106753;1282;106046;-77
2022/08/21 11:34:37;;;;;;;3.80;2.90;;;;;;;31.85;36.02;99526.04;106595;1282;138097;-76
2022/08/21 11:37:20;;;;;;;10.50;3.10;;;;;;;31.87;35.77;99526.83;106803;1281;96397;-77
2022/08/21 11:40:02;;;;;;;3.30;2.50;;;;;;;31.93;36.04;99526.05;106776;1282;138303;-76
2022/08/21 11:42:45;;;;;;;9.30;3.60;;;;;;;32.14;36.46;99524.96;106726;1282;108822;-76
2022/08/21 11:45:25;;;;;;;6.20;3.40;;;;;;;32.31;36.42;99523.30;106695;1281;139379;-76
2022/08/21 11:48:08;;;;;;;5.40;2.80;;;;;;;32.41;35.48;99524.54;106969;1281;96204;-77
2022/08/21 11:50:44;;;;;;;6.10;3.00;;;;;;;32.28;35.33;99524.94;106730;1282;138446;-79
2022/08/21 11:53:18;;;;;;;;;;;;;;;32.08;34.76;99524.33;106933;1281;112467;-78
2022/08/21 11:56:03;;;;;;;3.40;2.70;;;;;;;31.92;35.29;99524.96;106954;1281;107070;-77
2022/08/21 11:58:39;;;;;;;2.90;2.60;;;;;;;31.97;35.76;99519.25;106547;1282;139114;-77
2022/08/21 12:01:16;;;;;;;4.60;3.40;;;;;;;31.98;35.35;99518.36;106964;1280;96134;-76
2022/08/21 12:03:56;;;;;;;3.90;2.90;;;;;;;31.97;35.77;99521.20;106593;1282;138427;-77
2022/08/21 12:06:35;;;;;;;4.50;3.00;;;;;;;32.06;35.80;99521.59;106683;1282;111524;-76
2022/08/21 12:09:10;;;;;;;5.80;2.70;;;;;;;32.21;36.10;99515.84;106814;1281;139363;-77
2022/08/21 12:12:00;;;;;;;3.90;2.70;;;;;;;32.36;35.74;99517.29;106935;1281;108943;-77
2022/08/21 12:14:42;;;;;;;4.30;2.50;;;;;;;32.56;35.30;99512.16;106820;1281;138211;-77
2022/08/21 12:17:22;;;;;;;5.50;2.50;;;;;;;32.74;35.52;99512.09;106649;1283;96302;-76
2022/08/21 12:20:02;;;;;;;6.20;4.50;;;;;;;32.91;34.70;99511.05;106927;1281;112354;-77
2022/08/21 12:22:50;;;;;;;4.00;2.60;;;;;;;32.90;34.83;99508.52;106857;1281;138619;-76
2022/08/21 12:25:24;;;;;;;4.00;2.80;;;;;;;33.03;35.04;99503.25;106917;1281;108171;-76
2022/08/21 12:28:08;;;;;;;4.60;2.90;;;;;;;33.12;34.39;99504.27;105855;1281;138473;-75
2022/08/21 12:30:43;;;;;;;5.00;2.70;;;;;;;33.22;34.26;99508.45;105630;1281;97863;-77
2022/08/21 12:33:29;;;;;;;4.40;2.80;;;;;;;33.23;33.85;99505.42;105569;1281;137978;-77
2022/08/21 12:36:11;;;;;;;3.20;2.60;;;;;;;33.19;34.28;99509.75;105621;1281;109113;-77
2022/08/21 12:38:51;;;;;;;3.40;2.90;;;;;;;33.09;33.91;99511.29;105392;1282;139168;-77
2022/08/21 12:41:29;;;;;;;4.60;2.50;;;;;;;32.92;34.49;99508.56;105555;1282;97846;-77
2022/08/21 12:44:06;;;;;;;3.90;2.70;;;;;;;32.88;34.49;99507.36;105837;1283;96470;-77
2022/08/21 12:46:38;;;;;;;;;;;;;;;32.68;34.21;99510.36;105885;1281;137866;-76
2022/08/21 12:49:19;;;;;;;3.20;2.80;;;;;;;32.52;34.79;99509.88;105561;1281;107879;-77
2022/08/21 12:51:57;;;;;;;4.90;2.70;;;;;;;32.53;35.07;99508.52;105464;1282;138027;-78
2022/08/21 12:54:33;;;;;;;5.90;2.70;;;;;;;32.57;34.74;99510.41;105656;1280;97813;-76
2022/08/21 12:57:07;;;;;;;6.50;2.60;;;;;;;32.53;34.92;99502.88;105563;1280;138013;-76
2022/08/21 12:59:42;;;;;;;6.80;2.40;;;;;;;32.54;34.81;99506.64;105568;1281;112486;-77
2022/08/21 13:02:19;;;;;;;2.90;2.20;;;;;;;32.54;34.67;99505.81;105629;1281;109018;-76
2022/08/21 13:04:55;;;;;;;5.90;2.70;;;;;;;32.38;34.99;99506.23;105364;1282;106826;-76
2022/08/21 13:07:33;;;;;;;11.50;3.50;;;;;;;32.31;35.31;99508.64;105436;1282;97891;-75
2022/08/21 13:10:10;;;;;;;4.60;2.80;;;;;;;32.27;35.23;99509.16;105426;1281;138692;-76
2022/08/21 13:12:44;;;;;;;5.40;3.00;;;;;;;32.23;35.68;99506.16;105594;1281;112530;-76
2022/08/21 13:15:24;;;;;;;3.80;2.60;;;;;;;32.12;35.45;99508.45;105539;1282;137945;-75
2022/08/21 13:18:06;;;;;;;5.20;2.90;;;;;;;31.82;35.81;99507.73;105537;1282;108765;-76
2022/08/21 13:20:42;;;;;;;5.90;3.70;;;;;;;31.60;35.82;99511.34;105544;1281;138235;-76
2022/08/21 13:23:25;;;;;;;6.10;4.30;;;;;;;31.41;35.67;99507.04;105669;1281;97833;-75
2022/08/21 13:25:58;;;;;;;6.00;3.10;;;;;;;31.20;35.84;99513.04;106290;1281;113246;-77
2022/08/21 13:28:37;;;;;;;3.90;2.50;;;;;;;31.04;36.17;99511.95;105473;1281;137922;-76
2022/08/21 13:31:11;;;;;;;3.50;2.90;;;;;;;30.85;36.46;99504.84;105508;1282;107543;-76
2022/08/21 13:33:45;;;;;;;8.00;3.60;;;;;;;30.67;36.90;99507.94;105420;1281;138638;-75
2022/08/21 13:36:21;;;;;;;3.50;3.00;;;;;;;30.56;37.54;99504.46;105596;1281;97882;-77
2022/08/21 13:38:54;;;;;;;5.30;3.10;;;;;;;30.54;37.85;99505.41;105495;1282;138853;-75
2022/08/21 13:41:30;;;;;;;4.10;2.50;;;;;;;30.44;37.64;99505.73;105592;1282;109033;-76
2022/08/21 13:44:05;;;;;;;3.30;2.80;;;;;;;30.26;37.87;99504.63;105551;1281;107954;-76
2022/08/21 13:46:39;;;;;;;3.10;2.60;;;;;;;30.17;38.25;99505.88;105435;1281;138172;-75
2022/08/21 13:49:14;;;;;;;4.10;2.80;;;;;;;30.10;38.33;99504.20;105581;1281;97953;-76
2022/08/21 13:51:49;;;;;;;6.90;4.10;;;;;;;30.03;38.62;99512.73;105536;1281;137805;-77
2022/08/21 13:54:28;;;;;;;3.90;3.20;;;;;;;30.00;38.85;99512.54;105561;1281;107933;-76
2022/08/21 13:57:00;;;;;;;6.40;2.90;;;;;;;29.97;38.94;99513.24;106071;1280;137998;-76
2022/08/21 13:59:35;;;;;;;3.70;3.00;;;;;;;29.93;39.18;99513.81;106970;1281;96076;-76
2022/08/21 14:02:15;;;;;;;3.20;2.90;;;;;;;29.93;39.31;99514.84;107028;1280;95753;-76
2022/08/21 14:04:55;;;;;;;9.30;3.00;;;;;;;29.97;39.38;99516.31;106679;1283;111624;-76